createdAt,value
2022-09-30T00:02:10.264Z,12.90
2022-09-30T00:07:12.447Z,13.45
2022-09-30T00:12:14.444Z,12.23
2022-09-30T00:17:16.660Z,10.57
2022-09-30T00:22:18.723Z,11.90
2022-09-30T00:27:21.444Z,10.75
2022-09-30T00:32:23.439Z,12.20
2022-09-30T00:37:25.420Z,12.85
2022-09-30T00:42:29.492Z,14.38
2022-09-30T00:47:46.903Z,13.82
2022-09-30T00:53:12.716Z,14.88
2022-09-30T00:58:37.037Z,11.80
2022-09-30T01:03:44.476Z,11.70
2022-09-30T01:08:46.607Z,12.20
2022-09-30T01:13:57.136Z,12.15
2022-09-30T01:19:40.229Z,11.13
2022-09-30T01:25:05.778Z,10.63
2022-09-30T01:30:21.621Z,12.13
2022-09-30T01:35:45.105Z,12.95
2022-09-30T01:41:05.980Z,11.00
2022-09-30T01:46:10.970Z,13.30
2022-09-30T01:51:29.036Z,12.52
2022-09-30T01:56:37.951Z,10.93
2022-09-30T02:01:48.015Z,10.82
2022-09-30T02:06:56.154Z,14.40
2022-09-30T02:12:02.256Z,12.00
2022-09-30T02:17:16.112Z,15.82
2022-09-30T02:22:22.827Z,10.80
2022-09-30T02:27:30.909Z,12.20
2022-09-30T02:32:42.949Z,10.50
2022-09-30T02:37:51.024Z,11.77
2022-09-30T02:42:53.035Z,11.60
2022-09-30T02:48:22.638Z,12.82
2022-09-30T02:53:34.132Z,11.90
2022-09-30T02:58:39.423Z,13.18
2022-09-30T03:03:48.896Z,13.20
2022-09-30T03:08:52.921Z,12.25
2022-09-30T03:14:49.175Z,13.40
2022-09-30T03:20:12.622Z,13.80
2022-09-30T03:25:50.343Z,13.32
2022-09-30T03:31:20.051Z,13.88
2022-09-30T03:36:38.194Z,16.85
2022-09-30T03:41:42.064Z,13.75
2022-09-30T03:46:46.494Z,16.23
2022-09-30T03:51:50.954Z,17.30
2022-09-30T03:56:53.195Z,15.52
2022-09-30T04:01:56.953Z,15.63
2022-09-30T04:06:59.071Z,18.55
2022-09-30T04:12:01.404Z,18.05
2022-09-30T04:17:05.004Z,22.95
2022-09-30T04:22:08.126Z,31.27
2022-09-30T04:27:10.237Z,20.58
2022-09-30T04:32:12.309Z,21.00
2022-09-30T04:37:14.735Z,19.08
2022-09-30T04:42:18.285Z,18.17
2022-09-30T04:47:20.238Z,21.45
2022-09-30T04:52:22.327Z,17.63
2022-09-30T04:57:25.240Z,18.88
2022-09-30T05:02:27.289Z,19.85
2022-09-30T05:07:31.317Z,19.40
2022-09-30T05:12:33.881Z,19.48
2022-09-30T05:17:36.358Z,17.42
2022-09-30T05:22:38.380Z,19.65
2022-09-30T05:27:40.457Z,19.15
2022-09-30T05:32:42.429Z,18.58
2022-09-30T05:37:44.385Z,22.75
2022-09-30T05:42:47.236Z,24.55
2022-09-30T05:47:53.627Z,22.77
2022-09-30T05:52:57.535Z,20.35
2022-09-30T05:57:59.487Z,24.80
2022-09-30T06:03:01.497Z,26.67
2022-09-30T06:08:04.295Z,22.83
2022-09-30T06:13:06.952Z,23.40
2022-09-30T06:18:09.857Z,27.67
2022-09-30T06:23:11.851Z,28.55
2022-09-30T06:28:13.852Z,30.75
2022-09-30T06:33:16.065Z,34.33
2022-09-30T06:38:18.199Z,34.97
2022-09-30T06:43:20.834Z,31.80
2022-09-30T06:48:35.583Z,34.20
2022-09-30T06:53:40.267Z,35.95
2022-09-30T06:58:43.348Z,34.95
2022-09-30T07:03:46.092Z,32.92
2022-09-30T07:08:48.092Z,37.97
2022-09-30T07:13:50.412Z,35.65
2022-09-30T07:18:52.449Z,36.90
2022-09-30T07:23:54.922Z,40.75
2022-09-30T07:28:57.213Z,37.80
2022-09-30T07:33:59.465Z,41.15
2022-09-30T07:39:06.535Z,35.33
2022-09-30T07:44:14.806Z,38.10
2022-09-30T07:49:25.364Z,45.30
2022-09-30T07:54:30.765Z,43.58
2022-09-30T07:59:37.960Z,45.13
2022-09-30T08:04:43.700Z,48.03
2022-09-30T08:09:46.934Z,46.53
2022-09-30T08:14:48.996Z,58.03
2022-09-30T08:19:50.996Z,53.47
2022-09-30T08:24:53.008Z,52.67
2022-09-30T08:29:57.313Z,51.00
2022-09-30T08:35:01.234Z,46.00
2022-09-30T08:40:04.400Z,44.40
2022-09-30T08:45:31.066Z,48.17
2022-09-30T08:50:38.082Z,46.38
2022-09-30T08:55:43.235Z,42.72
2022-09-30T09:00:45.351Z,52.63
2022-09-30T09:06:01.983Z,48.28
2022-09-30T09:11:17.788Z,42.90
2022-09-30T09:16:36.118Z,41.72
2022-09-30T09:21:44.094Z,38.93
2022-09-30T09:26:46.815Z,33.42
2022-09-30T09:31:49.011Z,35.75
2022-09-30T09:36:56.995Z,32.97
2022-09-30T09:42:26.999Z,30.30
2022-09-30T09:47:29.012Z,28.08
2022-09-30T09:52:58.033Z,23.85
2022-09-30T09:58:17.232Z,15.00
2022-09-30T10:03:27.923Z,13.50
2022-09-30T10:08:32.918Z,17.80
2022-09-30T10:13:37.991Z,12.68
2022-09-30T10:18:45.763Z,11.82
2022-09-30T10:23:48.388Z,10.23
2022-09-30T10:28:59.472Z,9.80
2022-09-30T10:34:14.975Z,9.93
2022-09-30T10:39:19.927Z,8.95
2022-09-30T10:44:23.532Z,9.77
2022-09-30T10:49:41.740Z,5.35
2022-09-30T10:54:53.951Z,5.18
2022-09-30T11:00:03.462Z,5.63
2022-09-30T11:05:15.476Z,5.63
2022-09-30T11:10:45.184Z,5.93
2022-09-30T11:16:12.221Z,6.63
2022-09-30T11:21:54.790Z,5.40
2022-09-30T11:27:02.520Z,5.45
2022-09-30T11:32:40.368Z,5.57
2022-09-30T11:38:01.009Z,5.20
2022-09-30T11:43:14.727Z,6.38
2022-09-30T11:48:50.650Z,4.95
2022-09-30T11:54:31.956Z,6.90
2022-09-30T11:59:51.568Z,5.53
2022-09-30T12:04:57.977Z,5.03
2022-09-30T12:10:08.283Z,5.88
2022-09-30T12:15:16.242Z,4.20
2022-09-30T12:20:26.080Z,5.30
2022-09-30T12:25:40.140Z,4.90
2022-09-30T12:30:44.374Z,6.68
2022-09-30T12:35:55.435Z,4.45
2022-09-30T12:41:07.725Z,3.67
2022-09-30T12:46:20.720Z,5.32
2022-09-30T12:51:29.814Z,4.85
2022-09-30T12:56:34.333Z,4.00
2022-09-30T13:01:38.192Z,4.43
2022-09-30T13:06:48.828Z,8.48
2022-09-30T13:11:59.536Z,6.88
2022-09-30T13:17:07.494Z,5.63
2022-09-30T13:22:22.589Z,4.95
2022-09-30T13:27:42.955Z,5.40
2022-09-30T13:33:02.171Z,5.10
2022-09-30T13:38:13.401Z,5.93
2022-09-30T13:43:27.977Z,6.47
2022-09-30T13:48:33.635Z,3.45
2022-09-30T13:53:45.354Z,4.13
2022-09-30T13:59:07.687Z,7.07
2022-09-30T14:04:30.737Z,8.23
2022-09-30T14:10:13.834Z,5.75
2022-09-30T14:15:37.360Z,5.50
2022-09-30T14:21:16.578Z,5.90
2022-09-30T14:26:37.274Z,4.65
2022-09-30T14:31:46.900Z,11.33
2022-09-30T14:36:51.879Z,7.85
2022-09-30T14:41:57.771Z,5.35
2022-09-30T14:47:02.245Z,7.20
2022-09-30T14:52:04.822Z,5.03
2022-09-30T14:57:15.885Z,4.97
2022-09-30T15:02:22.276Z,3.72
2022-09-30T15:07:24.282Z,4.00
2022-09-30T15:12:26.736Z,4.90
2022-09-30T15:17:38.821Z,4.05
2022-09-30T15:22:41.678Z,5.68
2022-09-30T15:27:43.937Z,4.30
2022-09-30T15:32:49.459Z,3.80
2022-09-30T15:37:53.981Z,7.63
2022-09-30T15:43:02.792Z,4.40
2022-09-30T15:48:27.805Z,4.50
2022-09-30T15:53:35.830Z,4.57
2022-09-30T15:58:39.755Z,5.85
2022-09-30T16:03:54.672Z,5.20
2022-09-30T16:09:03.035Z,4.93
2022-09-30T16:14:09.858Z,4.15
2022-09-30T16:19:17.128Z,4.90
2022-09-30T16:24:22.064Z,5.35
2022-09-30T16:29:25.913Z,6.00
2022-09-30T16:34:29.770Z,8.18
2022-09-30T16:39:31.746Z,4.88
2022-09-30T16:44:37.724Z,7.78
2022-09-30T16:49:42.569Z,7.65
2022-09-30T16:54:44.575Z,9.77
2022-09-30T16:59:46.547Z,8.60
2022-09-30T17:04:48.527Z,7.47
2022-09-30T17:09:52.001Z,7.60
2022-09-30T17:14:55.267Z,8.20
2022-09-30T17:19:57.242Z,7.53
2022-09-30T17:25:00.344Z,8.90
2022-09-30T17:30:03.733Z,8.63
2022-09-30T17:35:08.309Z,9.02
2022-09-30T17:40:29.447Z,8.20
2022-09-30T17:45:31.492Z,10.10
2022-09-30T17:50:38.391Z,8.13
2022-09-30T17:55:41.285Z,9.13
2022-09-30T18:00:44.043Z,6.85
2022-09-30T18:05:46.183Z,6.53
2022-09-30T18:10:48.156Z,8.20
2022-09-30T18:15:50.173Z,6.70
2022-09-30T18:20:52.212Z,9.40
2022-09-30T18:25:54.908Z,8.85
2022-09-30T18:30:57.200Z,7.65
2022-09-30T18:36:06.628Z,6.93
2022-09-30T18:41:08.610Z,7.72
2022-09-30T18:46:11.546Z,8.25
2022-09-30T18:51:13.550Z,8.52
2022-09-30T18:56:16.303Z,5.95
2022-09-30T19:01:20.641Z,6.85
2022-09-30T19:06:22.915Z,6.78
2022-09-30T19:11:25.484Z,6.40
2022-09-30T19:16:29.395Z,7.20
2022-09-30T19:21:36.775Z,6.05
2022-09-30T19:26:39.272Z,6.70
2022-09-30T19:31:43.848Z,5.72
2022-09-30T19:36:51.686Z,6.65
2022-09-30T19:41:54.005Z,5.43
2022-09-30T19:46:56.028Z,5.35
2022-09-30T19:51:58.058Z,7.32
2022-09-30T19:57:00.083Z,4.75
2022-09-30T20:02:02.311Z,7.43
2022-09-30T20:07:04.447Z,5.63
2022-09-30T20:12:07.688Z,5.15
2022-09-30T20:17:09.752Z,5.18
2022-09-30T20:22:11.862Z,6.32
2022-09-30T20:27:13.822Z,5.85
2022-09-30T20:32:16.196Z,7.80
2022-09-30T20:37:18.188Z,7.07
2022-09-30T20:42:20.146Z,6.03
2022-09-30T20:47:22.106Z,7.05
2022-09-30T20:52:25.173Z,6.57
2022-09-30T20:57:30.917Z,6.32
2022-09-30T21:02:32.898Z,7.05
2022-09-30T21:07:35.403Z,7.25
2022-09-30T21:12:37.362Z,9.05
2022-09-30T21:17:40.314Z,8.15
2022-09-30T21:22:42.837Z,7.65
2022-09-30T21:27:46.701Z,7.85
2022-09-30T21:32:48.948Z,7.65
2022-09-30T21:37:50.969Z,6.45
2022-09-30T21:42:52.924Z,8.38
2022-09-30T21:48:05.986Z,7.38
2022-09-30T21:53:07.994Z,7.18
2022-09-30T21:58:09.942Z,8.43
2022-09-30T22:03:11.973Z,8.88
2022-09-30T22:08:14.508Z,9.90
2022-09-30T22:13:17.425Z,6.97
2022-09-30T22:18:19.600Z,6.78
2022-09-30T22:23:21.532Z,11.95
2022-09-30T22:28:23.840Z,11.57
2022-09-30T22:33:44.749Z,13.00
2022-09-30T22:38:46.749Z,12.87
2022-09-30T22:43:49.007Z,7.93
2022-09-30T22:48:52.910Z,8.15
2022-09-30T22:53:55.868Z,8.38
2022-09-30T22:58:59.407Z,7.45
2022-09-30T23:04:01.639Z,8.48
2022-09-30T23:09:05.379Z,6.28
2022-09-30T23:14:07.329Z,6.63
2022-09-30T23:19:09.295Z,9.35
2022-09-30T23:24:12.098Z,8.63
2022-09-30T23:29:14.816Z,10.73
2022-09-30T23:34:17.340Z,7.55
2022-09-30T23:39:20.145Z,9.20
2022-09-30T23:44:22.132Z,7.55
2022-09-30T23:49:24.100Z,7.47
2022-09-30T23:54:26.052Z,8.48
2022-09-30T23:59:28.498Z,8.68
